Rezekne, Latvia
Current Conditions -  °F | °C
As of 4:30 PM on Tuesday 21 Oct 2014 (Local Time) from ULOO Reporting Station
Overcast Overcast  
Wind Chill: 32°   Ceiling: 2800
Heat Index: 36°   Visibility: 4mi
Dew Point: 32°   Wind: 4mph
Humidity: 87%   Direction: 20°NNE
Pressure: 29.71"   Gusts: NA
Location:  56.51°N, 27.32°E
Report Text: ULOO 211330Z 02002MPS P6000 OVC028 02/M00 Q1006 19290060 NOSIGRMK QFE750
Loading
Personal Weather Stations






























Interactive Weather Map
Tropical Storm Tracking
New forecast layout! Learn more

10-Day Weather Forecast

Advertisements
Track Severe Weather on mobile